Startpagina
METAR-TAF:

METAR-TAF

Vliegvelden :

Tsjita, Rusland

breedte: 52-05N, lengte: 113-29E, hoogte: 685 m

Actueel weer

Dit bericht is 35 minuten geleden gemaakt, om 21:00 UTC
Wind 2 kt uit het noorden
Temperatuur -28°C
Vochtigheid 75%
Druk 1027 hPa
Zicht: 5000 m
Verspreide wolken op 3000 ft, Cumulonimbus.
lichte sneeuwbuien, nevel

METAR: UIAA 102100Z 35001MPS 5000 -SHSN BR SCT030CB M28/M31 Q1027 R29/420150 NOSIG RMK QFE711/0948

Tijdstip: 06:35 (21:35 UTC)

Verwachting

Dit bericht is 1 uur en het 35 minuten geleden gemaakt, om 20:00 UTC
Verwachting geldig van 10 om 21 UTC tot 11 om 21 UTC
Wind 6 kt uit het zuidwesten
Zicht: 3100 m
nevel
Van 11 om 1200 UTC
Wind 12 kt uit het westnoordwesten met uitschieters tot 25 kt
Zicht: 3100 m
Gebroken wolken op 2000 ft, Cumulonimbus.
lichte sneeuwbuien

TAF: UIAA 102000Z 1021/1121 23003MPS 3100 BR NSC FM111200 29006G13MPS 3100 -SHSN BKN020CB

Waarnemingen en weersverwachtingen van meer dan 4000 vliegvelden (METAR en TAF).

De beschikbare stations zijn de gele en rode punten op de kaart.

Ga met uw muis naar het station om de naam te zien.

Klik dan om waarnemingen en weersverwachtingen te zien.

kaart wijzigen: klik op de groene knoppen met een zwart kruis om in te zoomen, op de groene knop met een streepje om uit te zoomen of op de groene pijlen voor aangrenzende kaarten.


METAR-TAF: